createdAt,value
2018-01-26T00:00:02.235Z,6.43
2018-01-26T00:00:06.237Z,6.43
2018-01-26T00:00:09.923Z,6.43
2018-01-26T00:00:13.714Z,6.43
2018-01-26T00:00:17.604Z,6.43
2018-01-26T00:00:21.814Z,6.43
2018-01-26T00:00:25.604Z,6.43
2018-01-26T00:00:29.611Z,6.43
2018-01-26T00:00:33.401Z,6.43
2018-01-26T00:00:37.293Z,6.43
2018-01-26T00:00:41.300Z,6.43
2018-01-26T00:00:45.407Z,6.43
2018-01-26T00:00:49.617Z,6.43
2018-01-26T00:00:53.719Z,6.42
2018-01-26T00:00:57.507Z,6.43
2018-01-26T00:01:01.420Z,6.43
2018-01-26T00:01:05.316Z,6.43
2018-01-26T00:01:09.208Z,6.43
2018-01-26T00:01:13.313Z,6.43
2018-01-26T00:01:17.316Z,6.43
2018-01-26T00:01:21.212Z,6.44
2018-01-26T00:01:25.310Z,6.43
2018-01-26T00:01:29.200Z,6.43
2018-01-26T00:01:33.089Z,6.43
2018-01-26T00:01:36.778Z,6.42
2018-01-26T00:01:40.888Z,6.43
2018-01-26T00:01:44.998Z,6.43
2018-01-26T00:01:49.004Z,6.43
2018-01-26T00:01:53.000Z,6.43
2018-01-26T00:01:56.895Z,6.42
2018-01-26T00:02:00.903Z,6.43
2018-01-26T00:02:04.846Z,6.42
2018-01-26T00:02:08.950Z,6.42
2018-01-26T00:02:12.846Z,6.43
2018-01-26T00:02:17.047Z,6.42
2018-01-26T00:02:20.839Z,6.42
2018-01-26T00:02:24.737Z,6.43
2018-01-26T00:02:28.735Z,6.42
2018-01-26T00:02:32.736Z,6.43
2018-01-26T00:02:36.530Z,6.42
2018-01-26T00:02:40.216Z,6.41
2018-01-26T00:02:44.314Z,6.41
2018-01-26T00:02:48.527Z,6.41
2018-01-26T00:02:52.421Z,6.41
2018-01-26T00:02:56.426Z,6.42
2018-01-26T00:03:00.321Z,6.41
2018-01-26T00:03:04.621Z,6.41
2018-01-26T00:03:08.516Z,6.41
2018-01-26T00:03:12.405Z,6.41
2018-01-26T00:03:16.304Z,6.41
2018-01-26T00:03:20.195Z,6.4
2018-01-26T00:03:24.225Z,6.41
2018-01-26T00:03:28.330Z,6.41
2018-01-26T00:03:32.323Z,6.41
2018-01-26T00:03:36.115Z,6.4
2018-01-26T00:03:40.043Z,6.4
2018-01-26T00:03:44.414Z,6.4
2018-01-26T00:03:48.444Z,6.4
2018-01-26T00:03:52.547Z,6.4
2018-01-26T00:03:56.336Z,6.39
2018-01-26T00:04:00.122Z,6.39
2018-01-26T00:04:04.112Z,6.39
2018-01-26T00:04:08.008Z,6.39
2018-01-26T00:04:11.797Z,6.39
2018-01-26T00:04:15.800Z,6.39
2018-01-26T00:04:19.592Z,6.39
2018-01-26T00:04:23.699Z,6.38
2018-01-26T00:04:27.697Z,6.38
2018-01-26T00:04:31.491Z,6.38
2018-01-26T00:05:11.533Z,6.36
2018-01-26T00:05:15.534Z,6.36
2018-01-26T00:05:19.427Z,6.36
2018-01-26T00:05:23.326Z,6.37
2018-01-26T00:05:27.115Z,6.36
2018-01-26T00:05:31.226Z,6.36
2018-01-26T00:05:35.018Z,6.35
2018-01-26T00:05:39.020Z,6.36
2018-01-26T00:05:42.911Z,6.36
2018-01-26T00:05:47.016Z,6.35
2018-01-26T00:05:50.701Z,6.34
2018-01-26T00:05:54.598Z,6.35
2018-01-26T00:05:58.388Z,6.35
2018-01-26T00:06:02.534Z,6.35
2018-01-26T00:06:06.213Z,6.35
2018-01-26T00:06:09.899Z,6.34
2018-01-26T00:06:13.586Z,6.33
2018-01-26T00:06:17.481Z,6.34
2018-01-26T00:06:21.481Z,6.34
2018-01-26T00:06:25.487Z,6.33
2018-01-26T00:06:29.591Z,6.34
2018-01-26T00:06:33.591Z,6.33
2018-01-26T00:06:37.593Z,6.33
2018-01-26T00:06:41.591Z,6.33
2018-01-26T00:06:45.483Z,6.33
2018-01-26T00:06:49.590Z,6.33
2018-01-26T00:06:53.587Z,6.32
2018-01-26T00:06:57.497Z,6.33
2018-01-26T00:07:01.602Z,6.32
2018-01-26T00:07:05.802Z,6.32
2018-01-26T00:07:09.494Z,6.32
2018-01-26T00:07:13.492Z,6.32
2018-01-26T00:07:17.501Z,6.32
2018-01-26T00:07:21.389Z,6.32
2018-01-26T00:07:25.075Z,6.32
2018-01-26T00:07:28.965Z,6.31
2018-01-26T00:07:32.753Z,6.31
2018-01-26T00:07:36.655Z,6.3
2018-01-26T00:07:40.449Z,6.31
2018-01-26T00:07:44.344Z,6.3
2018-01-26T00:07:48.456Z,6.31
2018-01-26T00:07:52.243Z,6.31
2018-01-26T00:07:56.254Z,6.3
2018-01-26T00:08:00.262Z,6.31
2018-01-26T00:08:04.047Z,6.3
2018-01-26T00:08:08.041Z,6.31
2018-01-26T00:08:12.049Z,6.31
2018-01-26T00:08:16.051Z,6.3
2018-01-26T00:08:20.055Z,6.29
2018-01-26T00:08:24.158Z,6.3
2018-01-26T00:08:28.268Z,6.29
2018-01-26T00:08:32.271Z,6.3
2018-01-26T00:08:36.274Z,6.29
2018-01-26T00:08:40.482Z,6.29
2018-01-26T00:08:44.478Z,6.28
2018-01-26T00:08:48.374Z,6.29
2018-01-26T00:08:52.160Z,6.29
2018-01-26T00:08:56.161Z,6.29
2018-01-26T00:09:00.051Z,6.28
2018-01-26T00:09:03.847Z,6.27
2018-01-26T00:09:07.744Z,6.28
2018-01-26T00:09:11.948Z,6.27
2018-01-26T00:09:15.734Z,6.27
2018-01-26T00:09:19.625Z,6.26
2018-01-26T00:09:23.627Z,6.28
2018-01-26T00:09:27.626Z,6.27
2018-01-26T00:09:31.562Z,6.27
2018-01-26T00:09:35.776Z,6.25
2018-01-26T00:09:39.777Z,6.26
2018-01-26T00:09:43.774Z,6.26
2018-01-26T00:09:47.886Z,6.25
2018-01-26T00:09:51.784Z,6.25
2018-01-26T00:09:55.680Z,6.25
2018-01-26T00:09:59.580Z,6.24
2018-01-26T00:10:03.478Z,6.24
2018-01-26T00:10:07.372Z,6.24
2018-01-26T00:10:11.055Z,6.24
2018-01-26T00:10:14.959Z,6.24
2018-01-26T00:10:18.960Z,6.23
2018-01-26T00:10:22.954Z,6.23
2018-01-26T00:10:27.169Z,6.23
2018-01-26T00:10:31.167Z,6.23
2018-01-26T00:10:34.953Z,6.22
2018-01-26T00:10:38.967Z,6.23
2018-01-26T00:10:43.071Z,6.22
2018-01-26T00:10:46.857Z,6.21
2018-01-26T00:10:50.537Z,6.22
2018-01-26T00:10:54.539Z,6.21
2018-01-26T00:10:58.439Z,6.2
2018-01-26T00:11:02.639Z,6.2
2018-01-26T00:11:06.479Z,6.21
2018-01-26T00:11:10.277Z,6.2
2018-01-26T00:11:14.066Z,6.2
2018-01-26T00:11:17.955Z,6.19
2018-01-26T00:11:21.633Z,6.19
2018-01-26T00:11:25.628Z,6.19
2018-01-26T00:11:29.520Z,6.18
2018-01-26T00:11:33.626Z,6.18
2018-01-26T00:11:37.520Z,6.18
2018-01-26T00:11:41.304Z,6.17
2018-01-26T00:11:45.189Z,6.17
2018-01-26T00:11:49.289Z,6.17
2018-01-26T00:11:53.181Z,6.15
2018-01-26T00:11:57.279Z,6.16
2018-01-26T00:12:01.210Z,6.15
2018-01-26T00:12:05.104Z,6.15
2018-01-26T00:12:08.892Z,6.15
2018-01-26T00:12:12.577Z,6.14
2018-01-26T00:12:16.466Z,6.14
2018-01-26T00:12:20.462Z,6.13
2018-01-26T00:12:24.469Z,6.12
2018-01-26T00:12:28.362Z,6.13
2018-01-26T00:12:32.469Z,6.12
2018-01-26T00:12:36.154Z,6.12
2018-01-26T00:12:40.146Z,6.12
2018-01-26T00:12:43.937Z,6.11
2018-01-26T00:12:47.830Z,6.1
2018-01-26T00:12:51.930Z,6.1
2018-01-26T00:12:55.722Z,6.08
2018-01-26T00:12:59.827Z,6.08
2018-01-26T00:13:03.817Z,6.08
2018-01-26T00:13:07.920Z,6.08
2018-01-26T00:13:11.826Z,6.06
2018-01-26T00:13:15.716Z,6.06
2018-01-26T00:13:19.613Z,6.06
2018-01-26T00:13:23.617Z,6.05
2018-01-26T00:13:27.613Z,6.05
2018-01-26T00:13:31.406Z,6.04
2018-01-26T00:13:35.196Z,6.04
2018-01-26T00:13:38.987Z,6.03
2018-01-26T00:13:42.878Z,6.03
2018-01-26T00:13:46.563Z,6.02
2018-01-26T00:13:50.568Z,6.02
2018-01-26T00:13:54.566Z,6.02
2018-01-26T00:13:58.672Z,6.01
2018-01-26T00:14:02.566Z,6.01
2018-01-26T00:14:06.670Z,5.99
2018-01-26T00:14:10.459Z,6
2018-01-26T00:14:14.458Z,5.99
2018-01-26T00:14:18.454Z,5.98
2018-01-26T00:14:22.463Z,5.97
2018-01-26T00:14:26.354Z,5.96
2018-01-26T00:14:30.140Z,5.96
2018-01-26T00:14:34.239Z,5.95
2018-01-26T00:14:38.237Z,5.95
2018-01-26T00:14:42.250Z,5.94
2018-01-26T00:14:46.357Z,5.94
2018-01-26T00:14:50.351Z,5.92
2018-01-26T00:14:54.342Z,5.92
2018-01-26T00:14:58.235Z,5.92
2018-01-26T00:15:02.544Z,5.92
2018-01-26T00:15:06.437Z,5.9
2018-01-26T00:15:10.443Z,5.91
2018-01-26T00:15:14.443Z,5.9
2018-01-26T00:15:18.550Z,5.9
2018-01-26T00:15:22.444Z,5.88
2018-01-26T00:15:26.443Z,5.89
2018-01-26T00:15:30.228Z,5.89
2018-01-26T00:15:34.228Z,5.88
2018-01-26T00:15:38.016Z,5.87
2018-01-26T00:15:42.129Z,5.87
2018-01-26T00:15:45.925Z,5.86
2018-01-26T00:15:49.818Z,5.85
2018-01-26T00:15:53.712Z,5.85
2018-01-26T00:15:57.917Z,5.85
2018-01-26T00:16:01.704Z,5.86
2018-01-26T00:16:05.702Z,5.84
2018-01-26T00:16:09.495Z,5.84
2018-01-26T00:16:13.490Z,5.83
2018-01-26T00:16:17.728Z,5.83
2018-01-26T00:16:21.932Z,5.82
2018-01-26T00:16:25.933Z,5.83
2018-01-26T00:16:29.930Z,5.82
2018-01-26T00:16:34.029Z,5.81
2018-01-26T00:16:38.130Z,5.81
2018-01-26T00:16:42.135Z,5.8
2018-01-26T00:16:45.821Z,5.8
2018-01-26T00:16:49.707Z,5.79
2018-01-26T00:16:53.702Z,5.78
2018-01-26T00:16:57.707Z,5.78
2018-01-26T00:17:01.848Z,5.78
2018-01-26T00:17:05.754Z,5.78
2018-01-26T00:17:09.548Z,5.78
2018-01-26T00:17:13.444Z,5.77
2018-01-26T00:17:17.555Z,5.77
2018-01-26T00:17:21.557Z,5.77
2018-01-26T00:17:25.455Z,5.76
2018-01-26T00:17:29.450Z,5.76
2018-01-26T00:17:33.245Z,5.75
2018-01-26T00:17:37.033Z,5.75
2018-01-26T00:17:40.818Z,5.75
2018-01-26T00:17:44.713Z,5.74
2018-01-26T00:17:48.606Z,5.74
2018-01-26T00:17:52.597Z,5.74
2018-01-26T00:17:56.383Z,5.74
2018-01-26T00:18:00.275Z,5.73
2018-01-26T00:18:04.528Z,5.73
2018-01-26T00:18:08.315Z,5.73
2018-01-26T00:18:12.203Z,5.73
2018-01-26T00:18:16.206Z,5.72
2018-01-26T00:18:20.201Z,5.73
2018-01-26T00:18:24.303Z,5.72
2018-01-26T00:18:28.302Z,5.72
2018-01-26T00:18:32.303Z,5.71
2018-01-26T00:18:35.990Z,5.72
2018-01-26T00:18:39.886Z,5.71
2018-01-26T00:18:43.805Z,5.7
2018-01-26T00:18:47.808Z,5.71
2018-01-26T00:18:51.806Z,5.7
2018-01-26T00:18:55.697Z,5.7
2018-01-26T00:18:59.798Z,5.69
2018-01-26T00:19:03.792Z,5.69
2018-01-26T00:19:07.683Z,5.69
2018-01-26T00:19:11.572Z,5.69
2018-01-26T00:19:15.564Z,5.68
2018-01-26T00:19:19.567Z,5.69
2018-01-26T00:19:23.570Z,5.68
2018-01-26T00:19:27.670Z,5.69
2018-01-26T00:19:31.353Z,5.68
2018-01-26T00:19:35.349Z,5.68
2018-01-26T00:19:39.245Z,5.67
2018-01-26T00:19:43.033Z,5.68
2018-01-26T00:19:46.825Z,5.67
2018-01-26T00:19:50.717Z,5.67
2018-01-26T00:19:54.717Z,5.66
2018-01-26T00:19:58.613Z,5.66
2018-01-26T00:20:02.820Z,5.66
2018-01-26T00:20:06.613Z,5.65
2018-01-26T00:20:10.509Z,5.65
2018-01-26T00:20:14.295Z,5.65
2018-01-26T00:20:18.294Z,5.63
2018-01-26T00:20:22.406Z,5.64
2018-01-26T00:20:26.296Z,5.63
2018-01-26T00:20:30.201Z,5.64
2018-01-26T00:20:34.097Z,5.64
2018-01-26T00:20:37.891Z,5.63
2018-01-26T00:20:41.683Z,5.62
2018-01-26T00:20:45.471Z,5.62
2018-01-26T00:20:49.366Z,5.63
2018-01-26T00:20:53.260Z,5.62
2018-01-26T00:20:57.050Z,5.62
2018-01-26T00:21:00.849Z,5.61
2018-01-26T00:21:04.778Z,5.61
2018-01-26T00:21:08.567Z,5.61
2018-01-26T00:21:12.358Z,5.6
2018-01-26T00:21:16.146Z,5.59
2018-01-26T00:21:20.155Z,5.59
2018-01-26T00:21:24.157Z,5.59
2018-01-26T00:21:28.261Z,5.59
2018-01-26T00:21:32.158Z,5.59
2018-01-26T00:21:36.051Z,5.58
2018-01-26T00:21:39.947Z,5.59
2018-01-26T00:21:43.944Z,5.58
2018-01-26T00:21:47.735Z,5.58
2018-01-26T00:21:51.735Z,5.58
2018-01-26T00:21:55.524Z,5.57
2018-01-26T00:21:59.416Z,5.57
2018-01-26T00:22:03.312Z,5.57
2018-01-26T00:22:07.304Z,5.56
2018-01-26T00:22:11.093Z,5.55
2018-01-26T00:22:15.201Z,5.56
2018-01-26T00:22:19.201Z,5.56
2018-01-26T00:22:23.319Z,5.55
2018-01-26T00:22:27.117Z,5.55
2018-01-26T00:22:31.116Z,5.54
2018-01-26T00:22:34.905Z,5.54
2018-01-26T00:22:38.692Z,5.54
2018-01-26T00:22:42.477Z,5.54
2018-01-26T00:22:46.370Z,5.54
2018-01-26T00:22:50.163Z,5.53
2018-01-26T00:22:53.955Z,5.54
2018-01-26T00:22:57.640Z,5.53
2018-01-26T00:23:01.435Z,5.53
2018-01-26T00:23:05.437Z,5.53
2018-01-26T00:23:09.228Z,5.52
2018-01-26T00:23:13.228Z,5.51
2018-01-26T00:23:17.328Z,5.51
2018-01-26T00:23:21.324Z,5.51
2018-01-26T00:23:25.429Z,5.51
2018-01-26T00:23:29.322Z,5.5
2018-01-26T00:23:33.325Z,5.5
2018-01-26T00:23:37.526Z,5.49
2018-01-26T00:23:41.532Z,5.49
2018-01-26T00:23:45.426Z,5.49
2018-01-26T00:23:49.532Z,5.49
2018-01-26T00:23:53.419Z,5.48
2018-01-26T00:23:57.308Z,5.47
2018-01-26T00:24:01.309Z,5.48
2018-01-26T00:24:05.310Z,5.47
2018-01-26T00:24:08.992Z,5.46
2018-01-26T00:24:12.792Z,5.47
2018-01-26T00:24:16.686Z,5.47
2018-01-26T00:24:20.578Z,5.47
2018-01-26T00:24:24.686Z,5.45
2018-01-26T00:24:28.680Z,5.45
2018-01-26T00:24:32.785Z,5.45
2018-01-26T00:24:36.577Z,5.46
2018-01-26T00:24:40.575Z,5.44
2018-01-26T00:24:44.473Z,5.45
2018-01-26T00:24:48.162Z,5.45
2018-01-26T00:24:52.060Z,5.44
2018-01-26T00:24:56.206Z,5.44
2018-01-26T00:25:00.103Z,5.44
2018-01-26T00:25:04.110Z,5.42
2018-01-26T00:25:07.899Z,5.42
2018-01-26T00:25:11.689Z,5.42
2018-01-26T00:25:15.578Z,5.42
2018-01-26T00:25:19.588Z,5.41
2018-01-26T00:25:23.694Z,5.41
2018-01-26T00:25:27.612Z,5.4
2018-01-26T00:25:31.502Z,5.4
2018-01-26T00:25:35.404Z,5.4
2018-01-26T00:25:39.294Z,5.4
2018-01-26T00:25:43.401Z,5.39
2018-01-26T00:25:47.495Z,5.4
2018-01-26T00:25:51.284Z,5.39
2018-01-26T00:25:55.076Z,5.38
2018-01-26T00:25:58.758Z,5.38
2018-01-26T00:26:02.858Z,5.37
2018-01-26T00:26:06.542Z,5.37
2018-01-26T00:26:10.438Z,5.36
2018-01-26T00:26:14.331Z,5.37
2018-01-26T00:26:18.120Z,5.37
2018-01-26T00:26:21.806Z,5.37
2018-01-26T00:26:25.588Z,5.36
2018-01-26T00:26:29.584Z,5.35
2018-01-26T00:26:33.377Z,5.35
2018-01-26T00:26:37.374Z,5.35
2018-01-26T00:26:41.163Z,5.35
2018-01-26T00:26:45.062Z,5.34
2018-01-26T00:26:48.959Z,5.35
2018-01-26T00:26:52.638Z,5.34
2018-01-26T00:26:56.329Z,5.34
2018-01-26T00:27:00.333Z,5.33
2018-01-26T00:27:04.448Z,5.33
2018-01-26T00:27:08.365Z,5.32
2018-01-26T00:27:12.365Z,5.32
2018-01-26T00:27:16.158Z,5.31
2018-01-26T00:27:20.050Z,5.32
2018-01-26T00:27:24.155Z,5.3
2018-01-26T00:27:28.045Z,5.31
2018-01-26T00:27:31.839Z,5.31
2018-01-26T00:27:35.628Z,5.31
2018-01-26T00:27:39.628Z,5.3
2018-01-26T00:27:43.525Z,5.29
2018-01-26T00:27:47.320Z,5.29
2018-01-26T00:27:51.116Z,5.29
2018-01-26T00:27:54.898Z,5.29
2018-01-26T00:27:58.798Z,5.29
2018-01-26T00:28:03.261Z,5.28
2018-01-26T00:28:07.051Z,5.28
2018-01-26T00:28:10.944Z,5.28
2018-01-26T00:28:14.891Z,5.28
2018-01-26T00:28:18.792Z,5.27
2018-01-26T00:28:22.792Z,5.27
2018-01-26T00:28:26.693Z,5.27
2018-01-26T00:28:30.733Z,5.26
2018-01-26T00:28:34.523Z,5.26
2018-01-26T00:28:38.415Z,5.25
2018-01-26T00:28:42.305Z,5.25
2018-01-26T00:28:46.305Z,5.24
2018-01-26T00:28:50.198Z,5.25
2018-01-26T00:28:54.090Z,5.25
2018-01-26T00:28:58.087Z,5.24
2018-01-26T00:29:02.302Z,5.24
2018-01-26T00:29:06.199Z,5.24
2018-01-26T00:29:09.882Z,5.24
2018-01-26T00:29:13.672Z,5.23
2018-01-26T00:29:17.672Z,5.23
2018-01-26T00:29:21.616Z,5.22
2018-01-26T00:29:25.613Z,5.24
2018-01-26T00:29:29.398Z,5.22
2018-01-26T00:29:33.393Z,5.23
2018-01-26T00:29:37.286Z,5.22
2018-01-26T00:29:41.173Z,5.22
2018-01-26T00:29:44.963Z,5.21
2018-01-26T00:29:48.746Z,5.22
2018-01-26T00:29:52.648Z,5.21
2018-01-26T00:29:56.650Z,5.21
2018-01-26T00:30:00.546Z,5.21
2018-01-26T00:30:04.336Z,5.21
2018-01-26T00:30:08.440Z,5.21
2018-01-26T00:30:12.340Z,5.21
2018-01-26T00:30:16.335Z,5.2
2018-01-26T00:30:20.241Z,5.21
2018-01-26T00:30:24.028Z,5.2
2018-01-26T00:30:27.920Z,5.2
2018-01-26T00:30:31.920Z,5.2
2018-01-26T00:30:35.717Z,5.2
2018-01-26T00:30:39.817Z,5.2
2018-01-26T00:30:43.924Z,5.2
2018-01-26T00:30:47.818Z,5.19
2018-01-26T00:30:51.821Z,5.19
2018-01-26T00:30:55.718Z,5.19
2018-01-26T00:30:59.965Z,5.2
2018-01-26T00:31:04.173Z,5.19
2018-01-26T00:31:07.852Z,5.19
2018-01-26T00:31:11.755Z,5.19
2018-01-26T00:31:15.540Z,5.18
2018-01-26T00:31:19.228Z,5.19
2018-01-26T00:31:23.230Z,5.19
2018-01-26T00:31:27.228Z,5.18
2018-01-26T00:31:31.329Z,5.18
2018-01-26T00:31:35.328Z,5.18
2018-01-26T00:31:39.119Z,5.18
2018-01-26T00:31:43.231Z,5.18
2018-01-26T00:31:47.327Z,5.17
2018-01-26T00:31:51.334Z,5.18
2018-01-26T00:31:55.231Z,5.18
2018-01-26T00:31:59.127Z,5.18
2018-01-26T00:32:03.130Z,5.18
2018-01-26T00:32:07.256Z,5.17
2018-01-26T00:32:11.260Z,5.18
2018-01-26T00:32:15.155Z,5.17
2018-01-26T00:32:18.997Z,5.17
2018-01-26T00:32:22.779Z,5.17
2018-01-26T00:32:26.574Z,5.18
2018-01-26T00:32:30.465Z,5.16
2018-01-26T00:32:34.251Z,5.16
2018-01-26T00:32:38.143Z,5.16
2018-01-26T00:32:41.883Z,5.17
2018-01-26T00:32:45.880Z,5.17
2018-01-26T00:32:49.773Z,5.17
2018-01-26T00:32:53.457Z,5.16
2018-01-26T00:32:57.568Z,5.16
2018-01-26T00:33:01.564Z,5.15
2018-01-26T00:33:05.351Z,5.16
2018-01-26T00:33:09.251Z,5.16
2018-01-26T00:33:13.346Z,5.15
2018-01-26T00:33:17.242Z,5.15
2018-01-26T00:33:21.346Z,5.15
2018-01-26T00:33:25.568Z,5.14
2018-01-26T00:33:29.351Z,5.15
2018-01-26T00:33:33.351Z,5.15
2018-01-26T00:33:37.244Z,5.15
2018-01-26T00:33:41.242Z,5.15
2018-01-26T00:33:45.040Z,5.14
2018-01-26T00:33:48.931Z,5.14
2018-01-26T00:33:52.828Z,5.14
2018-01-26T00:33:56.614Z,5.14
2018-01-26T00:34:00.403Z,5.13
2018-01-26T00:34:04.403Z,5.14
2018-01-26T00:34:08.310Z,5.13
2018-01-26T00:34:12.211Z,5.14
2018-01-26T00:34:16.312Z,5.13
2018-01-26T00:34:20.205Z,5.12
2018-01-26T00:34:24.101Z,5.13
2018-01-26T00:34:28.003Z,5.12
2018-01-26T00:34:32.112Z,5.12
2018-01-26T00:34:36.285Z,5.12
2018-01-26T00:34:40.320Z,5.11
2018-01-26T00:34:44.084Z,5.12
2018-01-26T00:34:48.198Z,5.12
2018-01-26T00:34:52.090Z,5.11
2018-01-26T00:34:56.101Z,5.12
2018-01-26T00:35:00.103Z,5.11
2018-01-26T00:35:04.196Z,5.11
2018-01-26T00:35:08.209Z,5.11
2018-01-26T00:35:12.208Z,5.11
2018-01-26T00:35:16.208Z,5.1
2018-01-26T00:35:20.000Z,5.1
2018-01-26T00:35:24.002Z,5.1
2018-01-26T00:35:27.998Z,5.1
2018-01-26T00:35:31.997Z,5.09
2018-01-26T00:35:35.890Z,5.1
2018-01-26T00:35:39.892Z,5.09
2018-01-26T00:35:43.682Z,5.1
2018-01-26T00:35:47.577Z,5.09
2018-01-26T00:35:51.368Z,5.09
2018-01-26T00:35:55.374Z,5.09
2018-01-26T00:35:59.264Z,5.09
2018-01-26T00:36:03.264Z,5.09
2018-01-26T00:36:07.154Z,5.08
2018-01-26T00:36:10.942Z,5.08
2018-01-26T00:36:14.837Z,5.08
2018-01-26T00:36:18.833Z,5.08
2018-01-26T00:36:22.723Z,5.07
2018-01-26T00:36:26.721Z,5.07
2018-01-26T00:36:30.721Z,5.07
2018-01-26T00:36:34.505Z,5.07
2018-01-26T00:36:38.400Z,5.07
2018-01-26T00:36:42.400Z,5.06
2018-01-26T00:36:46.084Z,5.06
2018-01-26T00:36:49.764Z,5.07
2018-01-26T00:36:53.770Z,5.06
2018-01-26T00:36:57.775Z,5.06
2018-01-26T00:37:01.823Z,5.05
2018-01-26T00:37:05.820Z,5.05
2018-01-26T00:37:09.717Z,5.05
2018-01-26T00:37:13.819Z,5.05
2018-01-26T00:37:17.723Z,5.05
2018-01-26T00:37:21.844Z,5.05
2018-01-26T00:37:25.847Z,5.05
2018-01-26T00:37:29.948Z,5.05
2018-01-26T00:37:33.844Z,5.04
2018-01-26T00:37:37.841Z,5.04
2018-01-26T00:37:41.945Z,5.04
2018-01-26T00:37:45.840Z,5.05
2018-01-26T00:37:49.524Z,5.04
2018-01-26T00:37:53.206Z,5.04
2018-01-26T00:37:57.098Z,5.04
2018-01-26T00:38:01.094Z,5.04
2018-01-26T00:38:05.259Z,5.04
2018-01-26T00:38:09.374Z,5.03
2018-01-26T00:38:13.057Z,5.03
2018-01-26T00:38:16.858Z,5.03
2018-01-26T00:38:20.641Z,5.03
2018-01-26T00:38:24.431Z,5.03
2018-01-26T00:38:28.332Z,5.02
2018-01-26T00:38:32.532Z,5.02
2018-01-26T00:38:36.637Z,5.02
2018-01-26T00:38:40.534Z,5.02
2018-01-26T00:38:44.437Z,5.01
2018-01-26T00:38:48.331Z,5.02
2018-01-26T00:38:52.433Z,5.01
2018-01-26T00:38:56.332Z,5.01
2018-01-26T00:39:00.227Z,5.01
2018-01-26T00:39:04.577Z,5.01
2018-01-26T00:39:08.470Z,5.01
2018-01-26T00:39:12.484Z,5
2018-01-26T00:39:16.377Z,5.01
2018-01-26T00:39:20.172Z,5
2018-01-26T00:39:24.285Z,5
2018-01-26T00:39:28.179Z,5.01
2018-01-26T00:39:32.080Z,5
2018-01-26T00:39:35.867Z,5.01
2018-01-26T00:39:39.861Z,5
2018-01-26T00:39:43.753Z,4.99
2018-01-26T00:39:47.963Z,4.99
2018-01-26T00:39:51.859Z,5
2018-01-26T00:39:55.760Z,5
2018-01-26T00:39:59.761Z,5
2018-01-26T00:40:03.575Z,4.99
2018-01-26T00:40:07.517Z,4.99
2018-01-26T00:40:11.517Z,4.99
2018-01-26T00:40:15.515Z,4.99
2018-01-26T00:40:19.406Z,4.98
2018-01-26T00:40:23.296Z,4.99
2018-01-26T00:40:27.408Z,4.99
2018-01-26T00:40:31.192Z,4.98
2018-01-26T00:40:34.985Z,4.99
2018-01-26T00:40:38.668Z,4.99
2018-01-26T00:40:42.665Z,4.97
2018-01-26T00:40:46.561Z,4.99
2018-01-26T00:40:50.672Z,4.98
2018-01-26T00:40:54.458Z,4.98
2018-01-26T00:40:58.454Z,4.98
2018-01-26T00:41:02.346Z,4.98
2018-01-26T00:41:06.476Z,4.98
2018-01-26T00:41:10.367Z,4.98
2018-01-26T00:41:14.265Z,4.97
2018-01-26T00:41:18.054Z,4.98
2018-01-26T00:41:22.056Z,4.97
2018-01-26T00:41:26.056Z,4.98
2018-01-26T00:41:30.060Z,4.96
2018-01-26T00:41:33.955Z,4.96
2018-01-26T00:41:37.850Z,4.97
2018-01-26T00:41:41.744Z,4.97
2018-01-26T00:41:45.535Z,4.97
2018-01-26T00:41:49.638Z,4.97
2018-01-26T00:41:53.437Z,4.97
2018-01-26T00:41:57.435Z,4.97
2018-01-26T00:42:01.328Z,4.97
2018-01-26T00:42:05.119Z,4.97
2018-01-26T00:42:08.911Z,4.97
2018-01-26T00:42:12.906Z,4.97
2018-01-26T00:42:16.800Z,4.97
2018-01-26T00:42:20.897Z,4.97
2018-01-26T00:42:24.896Z,4.97
2018-01-26T00:42:28.896Z,4.96
2018-01-26T00:42:32.784Z,4.96
2018-01-26T00:42:36.570Z,4.97
2018-01-26T00:42:40.253Z,4.97
2018-01-26T00:42:44.262Z,4.97
2018-01-26T00:42:48.159Z,4.96
2018-01-26T00:42:51.948Z,4.96
2018-01-26T00:42:55.741Z,4.96
2018-01-26T00:42:59.737Z,4.96
2018-01-26T00:43:03.931Z,4.97
2018-01-26T00:43:07.823Z,4.96
2018-01-26T00:43:11.720Z,4.97
2018-01-26T00:43:15.724Z,4.96
2018-01-26T00:43:19.726Z,4.97
2018-01-26T00:43:23.617Z,4.95
2018-01-26T00:43:27.514Z,4.96
2018-01-26T00:43:31.511Z,4.95
2018-01-26T00:43:35.409Z,4.96
2018-01-26T00:43:39.409Z,4.95
2018-01-26T00:43:43.408Z,4.97
2018-01-26T00:43:47.401Z,4.97
2018-01-26T00:43:51.089Z,4.96
2018-01-26T00:43:54.983Z,4.95
2018-01-26T00:43:58.874Z,4.96
2018-01-26T00:44:02.764Z,4.97
2018-01-26T00:44:06.658Z,4.96
2018-01-26T00:44:10.498Z,4.97
2018-01-26T00:44:14.388Z,4.97
2018-01-26T00:44:18.180Z,4.96
2018-01-26T00:44:22.175Z,4.96
2018-01-26T00:44:25.963Z,4.97
2018-01-26T00:44:29.858Z,4.96
2018-01-26T00:44:33.751Z,4.96
2018-01-26T00:44:37.645Z,4.97
2018-01-26T00:44:41.433Z,4.95
2018-01-26T00:44:45.225Z,4.96
2018-01-26T00:44:49.117Z,4.96
2018-01-26T00:44:53.325Z,4.96
2018-01-26T00:44:57.113Z,4.96
2018-01-26T00:45:00.902Z,4.96
2018-01-26T00:45:04.800Z,4.96
2018-01-26T00:45:08.590Z,4.96
2018-01-26T00:45:12.587Z,4.96
2018-01-26T00:45:16.582Z,4.95
2018-01-26T00:45:20.686Z,4.95
2018-01-26T00:45:24.898Z,4.95
2018-01-26T00:45:29.150Z,4.95
2018-01-26T00:45:33.255Z,4.95
2018-01-26T00:45:36.934Z,4.96
2018-01-26T00:45:40.826Z,4.95
2018-01-26T00:45:44.928Z,4.94
2018-01-26T00:45:48.714Z,4.95
2018-01-26T00:45:52.507Z,4.94
2018-01-26T00:45:56.300Z,4.95
2018-01-26T00:46:00.198Z,4.95
2018-01-26T00:46:03.989Z,4.95
2018-01-26T00:46:07.772Z,4.95
2018-01-26T00:46:11.663Z,4.94
2018-01-26T00:46:15.453Z,4.94
2018-01-26T00:46:19.351Z,4.94
2018-01-26T00:46:23.243Z,4.95
2018-01-26T00:46:27.034Z,4.94
2018-01-26T00:46:30.821Z,4.94
2018-01-26T00:46:34.819Z,4.95
2018-01-26T00:46:38.920Z,4.94
2018-01-26T00:46:43.031Z,4.95
2018-01-26T00:46:47.142Z,4.94
2018-01-26T00:46:51.037Z,4.95
2018-01-26T00:46:54.723Z,4.94
2018-01-26T00:46:58.830Z,4.94
2018-01-26T00:47:02.926Z,4.94
2018-01-26T00:47:06.918Z,4.94
2018-01-26T00:47:10.912Z,4.94
2018-01-26T00:47:14.699Z,4.93
2018-01-26T00:47:18.695Z,4.94
2018-01-26T00:47:22.376Z,4.94
2018-01-26T00:47:26.169Z,4.93
2018-01-26T00:47:30.072Z,4.94
2018-01-26T00:47:33.755Z,4.94
2018-01-26T00:47:37.543Z,4.94
2018-01-26T00:47:41.328Z,4.94
2018-01-26T00:47:45.330Z,4.93
2018-01-26T00:47:49.222Z,4.94
2018-01-26T00:47:53.010Z,4.94
2018-01-26T00:47:56.691Z,4.94
2018-01-26T00:48:00.793Z,4.93
2018-01-26T00:48:05.043Z,4.94
2018-01-26T00:48:08.935Z,4.93
2018-01-26T00:48:12.723Z,4.93
2018-01-26T00:48:16.624Z,4.93
2018-01-26T00:48:20.738Z,4.93
2018-01-26T00:48:24.840Z,4.93
2018-01-26T00:48:28.732Z,4.93
2018-01-26T00:48:32.421Z,4.93
2018-01-26T00:48:36.423Z,4.93
2018-01-26T00:48:40.429Z,4.92
2018-01-26T00:48:44.212Z,4.92
2018-01-26T00:48:48.211Z,4.93
2018-01-26T00:48:52.218Z,4.93
2018-01-26T00:48:56.016Z,4.93
2018-01-26T00:49:00.018Z,4.92
2018-01-26T00:49:04.015Z,4.92
2018-01-26T00:49:07.908Z,4.92
2018-01-26T00:49:11.807Z,4.92
2018-01-26T00:49:15.804Z,4.92
2018-01-26T00:49:19.593Z,4.92
2018-01-26T00:49:23.592Z,4.92
2018-01-26T00:49:27.706Z,4.92
2018-01-26T00:49:31.496Z,4.93
2018-01-26T00:49:35.395Z,4.92
2018-01-26T00:49:39.606Z,4.91
2018-01-26T00:49:43.494Z,4.91
2018-01-26T00:49:47.280Z,4.92
2018-01-26T00:49:51.170Z,4.92
2018-01-26T00:49:55.168Z,4.91
2018-01-26T00:49:59.169Z,4.92
2018-01-26T00:50:03.014Z,4.92
2018-01-26T00:50:06.809Z,4.92
2018-01-26T00:50:10.918Z,4.92
2018-01-26T00:50:14.702Z,4.92
2018-01-26T00:50:18.907Z,4.92
2018-01-26T00:50:22.910Z,4.92
2018-01-26T00:50:26.703Z,4.91
2018-01-26T00:50:30.810Z,4.91
2018-01-26T00:50:34.915Z,4.92
2018-01-26T00:50:38.913Z,4.92
2018-01-26T00:50:42.916Z,4.92
2018-01-26T00:50:46.912Z,4.91
2018-01-26T00:50:50.913Z,4.91
2018-01-26T00:50:54.811Z,4.92
2018-01-26T00:50:58.710Z,4.91
2018-01-26T00:51:02.824Z,4.91
2018-01-26T00:51:06.826Z,4.91
2018-01-26T00:51:10.504Z,4.91
2018-01-26T00:51:14.290Z,4.91
2018-01-26T00:51:18.288Z,4.91
2018-01-26T00:51:22.072Z,4.92
2018-01-26T00:51:26.182Z,4.91
2018-01-26T00:51:30.078Z,4.91
2018-01-26T00:51:34.179Z,4.91
2018-01-26T00:51:38.278Z,4.91
2018-01-26T00:51:42.067Z,4.9
2018-01-26T00:51:45.748Z,4.91
2018-01-26T00:51:49.428Z,4.91
2018-01-26T00:51:53.326Z,4.91
2018-01-26T00:51:57.012Z,4.91
2018-01-26T00:52:00.796Z,4.9
2018-01-26T00:52:04.688Z,4.9
2018-01-26T00:52:08.794Z,4.9
2018-01-26T00:52:12.723Z,4.9
2018-01-26T00:52:16.507Z,4.91
2018-01-26T00:52:20.508Z,4.9
2018-01-26T00:52:24.511Z,4.91
2018-01-26T00:52:28.513Z,4.9
2018-01-26T00:52:32.623Z,4.9
2018-01-26T00:52:36.727Z,4.91
2018-01-26T00:52:40.828Z,4.9
2018-01-26T00:52:44.834Z,4.9
2018-01-26T00:52:48.626Z,4.91
2018-01-26T00:52:52.624Z,4.9
2018-01-26T00:52:56.519Z,4.9
2018-01-26T00:53:00.302Z,4.9
2018-01-26T00:53:04.085Z,4.9
2018-01-26T00:53:07.973Z,4.91